createdAt,value
2023-06-04T00:00:28.675Z,14.54
2023-06-04T00:03:16.175Z,14.53
2023-06-04T00:05:43.425Z,14.41
2023-06-04T00:08:10.808Z,14.42
2023-06-04T00:10:40.377Z,14.46
2023-06-04T00:13:07.613Z,14.44
2023-06-04T00:15:34.757Z,14.45
2023-06-04T00:18:02.859Z,14.45
2023-06-04T00:20:30.167Z,14.45
2023-06-04T00:22:57.507Z,14.41
2023-06-04T00:25:24.705Z,14.37
2023-06-04T00:27:52.739Z,14.38
2023-06-04T00:30:20.241Z,14.42
2023-06-04T00:32:47.831Z,14.48
2023-06-04T00:35:15.555Z,14.47
2023-06-04T00:37:42.749Z,14.52
2023-06-04T00:40:10.295Z,14.50
2023-06-04T00:42:38.252Z,14.46
2023-06-04T00:45:08.421Z,14.45
2023-06-04T00:47:36.043Z,14.44
2023-06-04T00:50:03.455Z,14.44
2023-06-04T00:52:31.020Z,14.33
2023-06-04T00:54:58.729Z,14.27
2023-06-04T00:57:25.989Z,14.25
2023-06-04T00:59:53.468Z,14.04
2023-06-04T01:02:23.681Z,13.89
2023-06-04T01:05:09.277Z,13.78
2023-06-04T01:07:39.278Z,13.73
2023-06-04T01:10:07.364Z,13.73
2023-06-04T01:12:34.523Z,13.82
2023-06-04T01:15:01.853Z,13.80
2023-06-04T01:17:47.884Z,13.79
2023-06-04T01:20:35.488Z,13.75
2023-06-04T01:23:14.643Z,13.76
2023-06-04T01:25:44.632Z,13.82
2023-06-04T01:28:13.416Z,13.89
2023-06-04T01:30:43.905Z,13.94
2023-06-04T01:33:13.163Z,13.98
2023-06-04T01:35:40.839Z,14.03
2023-06-04T01:38:08.541Z,13.99
2023-06-04T01:40:36.055Z,13.95
2023-06-04T01:43:04.597Z,13.87
2023-06-04T01:45:31.856Z,13.75
2023-06-04T01:48:04.658Z,13.73
2023-06-04T01:50:31.966Z,13.59
2023-06-04T01:52:59.653Z,13.38
2023-06-04T01:55:28.833Z,13.30
2023-06-04T01:57:56.104Z,13.17
2023-06-04T02:00:23.667Z,13.06
2023-06-04T02:02:51.393Z,13.00
2023-06-04T02:05:18.813Z,12.95
2023-06-04T02:07:48.328Z,12.88
2023-06-04T02:10:17.179Z,12.82
2023-06-04T02:13:03.930Z,12.84
2023-06-04T02:15:32.386Z,12.97
2023-06-04T02:18:13.697Z,13.06
2023-06-04T02:20:41.281Z,12.99
2023-06-04T02:23:08.404Z,12.89
2023-06-04T02:25:35.499Z,12.82
2023-06-04T02:28:02.860Z,12.76
2023-06-04T02:30:30.069Z,12.73
2023-06-04T02:32:57.920Z,12.61
2023-06-04T02:35:25.590Z,12.57
2023-06-04T02:37:52.696Z,12.57
2023-06-04T02:40:20.040Z,12.60
2023-06-04T02:42:47.300Z,12.73
2023-06-04T02:45:15.079Z,12.82
2023-06-04T02:47:42.622Z,12.90
2023-06-04T02:50:10.235Z,12.90
2023-06-04T02:52:41.971Z,13.05
2023-06-04T02:55:12.984Z,12.99
2023-06-04T02:57:44.159Z,12.93
2023-06-04T03:00:14.064Z,12.93
2023-06-04T03:02:46.917Z,13.00
2023-06-04T03:05:15.517Z,12.95
2023-06-04T03:07:44.215Z,12.94
2023-06-04T03:10:12.254Z,12.87
2023-06-04T03:12:39.449Z,12.80
2023-06-04T03:15:07.292Z,12.85
2023-06-04T03:17:34.569Z,12.90
2023-06-04T03:20:02.082Z,12.97
2023-06-04T03:22:30.045Z,13.00
2023-06-04T03:24:57.169Z,12.94
2023-06-04T03:27:24.487Z,13.03
2023-06-04T03:29:51.760Z,13.13
2023-06-04T03:32:19.558Z,13.10
2023-06-04T03:34:47.798Z,12.75
2023-06-04T03:37:15.187Z,12.55
2023-06-04T03:39:42.465Z,12.52
2023-06-04T03:42:11.962Z,12.43
2023-06-04T03:44:39.442Z,12.57
2023-06-04T03:47:08.281Z,12.71
2023-06-04T03:49:35.949Z,12.87
2023-06-04T03:52:03.168Z,13.02
2023-06-04T03:54:31.459Z,13.13
2023-06-04T03:56:58.763Z,13.23
2023-06-04T03:59:25.830Z,13.21
2023-06-04T04:01:53.475Z,13.15
2023-06-04T04:04:21.066Z,13.14
2023-06-04T04:06:48.847Z,13.23
2023-06-04T04:09:16.135Z,13.33
2023-06-04T04:11:43.338Z,13.44
2023-06-04T04:14:11.052Z,13.55
2023-06-04T04:16:38.394Z,13.47
2023-06-04T04:19:08.471Z,13.43
2023-06-04T04:21:38.221Z,13.49
2023-06-04T04:24:05.939Z,13.55
2023-06-04T04:26:33.149Z,13.69
2023-06-04T04:29:00.480Z,13.84
2023-06-04T04:31:31.216Z,13.96
2023-06-04T04:33:58.471Z,14.11
2023-06-04T04:36:25.923Z,14.20
2023-06-04T04:38:54.924Z,14.34
2023-06-04T04:41:24.218Z,14.41
2023-06-04T04:43:53.664Z,14.42
2023-06-04T04:46:24.484Z,14.53
2023-06-04T04:48:51.934Z,14.65
2023-06-04T04:51:19.299Z,14.79
2023-06-04T04:53:46.580Z,14.89
2023-06-04T04:56:14.093Z,14.98
2023-06-04T04:58:44.074Z,15.05
2023-06-04T05:01:11.279Z,15.04
2023-06-04T05:03:38.754Z,15.07
2023-06-04T05:06:06.553Z,15.17
2023-06-04T05:08:33.815Z,15.24
2023-06-04T05:11:01.158Z,15.07
2023-06-04T05:13:29.233Z,15.07
2023-06-04T05:16:07.199Z,15.18
2023-06-04T05:18:41.913Z,15.24
2023-06-04T05:21:12.138Z,15.44
2023-06-04T05:23:43.020Z,15.55
2023-06-04T05:26:10.190Z,15.62
2023-06-04T05:28:37.496Z,15.69
2023-06-04T05:31:05.302Z,15.78
2023-06-04T05:33:34.491Z,15.91
2023-06-04T05:36:05.122Z,16.04
2023-06-04T05:38:36.852Z,16.17
2023-06-04T05:41:06.995Z,16.24
2023-06-04T05:43:35.936Z,16.21
2023-06-04T05:46:03.536Z,16.30
2023-06-04T05:48:31.035Z,16.26
2023-06-04T05:50:58.309Z,16.31
2023-06-04T05:53:25.708Z,16.36
2023-06-04T05:55:53.505Z,16.44
2023-06-04T05:58:20.870Z,16.53
2023-06-04T06:00:50.745Z,16.62
2023-06-04T06:03:18.278Z,16.74
2023-06-04T06:05:46.284Z,16.82
2023-06-04T06:08:14.820Z,16.86
2023-06-04T06:10:42.903Z,16.94
2023-06-04T06:13:10.215Z,17.06
2023-06-04T06:15:37.444Z,17.09
2023-06-04T06:18:05.217Z,17.09
2023-06-04T06:20:32.803Z,17.13
2023-06-04T06:23:07.261Z,17.24
2023-06-04T06:25:34.754Z,17.29
2023-06-04T06:28:07.730Z,17.40
2023-06-04T06:30:36.362Z,17.50
2023-06-04T06:33:03.542Z,17.55
2023-06-04T06:35:30.777Z,17.56
2023-06-04T06:37:57.928Z,17.63
2023-06-04T06:40:25.415Z,17.71
2023-06-04T06:42:52.845Z,17.74
2023-06-04T06:45:20.382Z,17.79
2023-06-04T06:47:47.608Z,17.74
2023-06-04T06:50:15.068Z,17.80
2023-06-04T06:52:42.423Z,17.83
2023-06-04T06:55:09.622Z,17.88
2023-06-04T06:57:36.944Z,17.91
2023-06-04T07:00:05.678Z,17.95
2023-06-04T07:02:33.004Z,18.03
2023-06-04T07:05:00.261Z,18.11
2023-06-04T07:07:27.418Z,18.14
2023-06-04T07:09:54.472Z,18.16
2023-06-04T07:12:21.980Z,18.21
2023-06-04T07:14:49.081Z,18.23
2023-06-04T07:17:16.217Z,18.25
2023-06-04T07:19:43.564Z,18.28
2023-06-04T07:22:11.223Z,18.32
2023-06-04T07:24:40.090Z,18.33
2023-06-04T07:27:15.508Z,18.35
2023-06-04T07:29:46.013Z,18.26
2023-06-04T07:32:13.603Z,18.28
2023-06-04T07:34:40.753Z,18.27
2023-06-04T07:37:10.020Z,18.32
2023-06-04T07:39:37.556Z,18.35
2023-06-04T07:42:06.331Z,18.45
2023-06-04T07:44:33.856Z,18.48
2023-06-04T07:47:01.212Z,18.52
2023-06-04T07:49:28.345Z,18.56
2023-06-04T07:51:56.010Z,18.62
2023-06-04T07:54:23.288Z,18.64
2023-06-04T07:56:56.293Z,18.71
2023-06-04T07:59:23.971Z,18.83
2023-06-04T08:01:55.110Z,18.89
2023-06-04T08:04:22.700Z,18.87
2023-06-04T08:06:50.897Z,18.76
2023-06-04T08:09:18.154Z,18.80
2023-06-04T08:11:45.738Z,18.85
2023-06-04T08:14:13.738Z,18.93
2023-06-04T08:16:41.262Z,19.01
2023-06-04T08:19:09.078Z,19.08
2023-06-04T08:21:36.554Z,19.10
2023-06-04T08:24:04.086Z,19.15
2023-06-04T08:26:31.345Z,19.20
2023-06-04T08:28:58.791Z,19.28
2023-06-04T08:31:26.376Z,19.35
2023-06-04T08:33:53.617Z,19.41
2023-06-04T08:36:21.003Z,19.47
2023-06-04T08:38:52.729Z,19.52
2023-06-04T08:41:22.888Z,19.47
2023-06-04T08:43:50.635Z,19.42
2023-06-04T08:46:18.738Z,19.28
2023-06-04T08:48:46.299Z,19.31
2023-06-04T08:51:14.665Z,19.40
2023-06-04T08:53:43.562Z,19.49
2023-06-04T08:56:11.866Z,19.62
2023-06-04T08:58:41.201Z,19.73
2023-06-04T09:01:09.313Z,19.84
2023-06-04T09:03:37.958Z,19.92
2023-06-04T09:06:06.559Z,19.94
2023-06-04T09:08:38.606Z,19.97
2023-06-04T09:11:07.039Z,20.07
2023-06-04T09:13:34.918Z,20.20
2023-06-04T09:16:03.699Z,20.26
2023-06-04T09:18:31.325Z,20.33
2023-06-04T09:21:09.564Z,20.40
2023-06-04T09:23:49.474Z,20.45
2023-06-04T09:26:17.136Z,20.49
2023-06-04T09:28:46.339Z,20.60
2023-06-04T09:31:17.464Z,20.68
2023-06-04T09:33:45.867Z,20.53
2023-06-04T09:36:13.036Z,20.58
2023-06-04T09:38:40.476Z,20.67
2023-06-04T09:41:13.213Z,20.75
2023-06-04T09:43:41.425Z,20.90
2023-06-04T09:46:16.714Z,20.96
2023-06-04T09:48:45.443Z,20.90
2023-06-04T09:51:20.432Z,20.97
2023-06-04T09:53:58.684Z,21.15
2023-06-04T09:56:29.796Z,21.26
2023-06-04T09:59:02.285Z,21.43
2023-06-04T10:01:31.282Z,21.51
2023-06-04T10:04:04.335Z,21.53
2023-06-04T10:06:34.752Z,21.62
2023-06-04T10:09:09.842Z,21.68
2023-06-04T10:11:52.448Z,21.74
2023-06-04T10:14:24.180Z,21.75
2023-06-04T10:16:52.254Z,21.81
2023-06-04T10:19:20.801Z,21.90
2023-06-04T10:21:48.130Z,21.97
2023-06-04T10:24:16.320Z,21.97
2023-06-04T10:26:44.529Z,21.93
2023-06-04T10:29:13.306Z,21.95
2023-06-04T10:31:42.082Z,21.98
2023-06-04T10:34:09.496Z,22.07
2023-06-04T10:36:46.482Z,22.14
2023-06-04T10:39:14.031Z,22.17
2023-06-04T10:41:41.672Z,22.13
2023-06-04T10:44:09.035Z,21.87
2023-06-04T10:46:43.506Z,21.85
2023-06-04T10:49:15.400Z,22.00
2023-06-04T10:51:44.333Z,22.13
2023-06-04T10:54:22.739Z,22.19
2023-06-04T10:56:50.115Z,22.37
2023-06-04T10:59:18.556Z,22.42
2023-06-04T11:01:46.777Z,22.53
2023-06-04T11:04:25.708Z,22.62
2023-06-04T11:07:09.317Z,22.75
2023-06-04T11:09:49.458Z,22.94
2023-06-04T11:12:17.138Z,23.00
2023-06-04T11:14:57.762Z,23.03
2023-06-04T11:17:25.309Z,23.01
2023-06-04T11:19:55.907Z,23.21
2023-06-04T11:22:23.126Z,23.33
2023-06-04T11:24:52.992Z,23.50
2023-06-04T11:27:28.357Z,23.60
2023-06-04T11:30:03.330Z,23.62
2023-06-04T11:32:31.183Z,23.66
2023-06-04T11:35:07.017Z,23.83
2023-06-04T11:37:34.924Z,24.04
2023-06-04T11:40:02.419Z,24.18
2023-06-04T11:42:30.273Z,24.41
2023-06-04T11:44:58.255Z,24.62
2023-06-04T11:47:26.311Z,24.69
2023-06-04T11:49:57.405Z,24.92
2023-06-04T11:52:24.969Z,25.15
2023-06-04T11:54:52.445Z,25.22
2023-06-04T11:57:19.649Z,25.37
2023-06-04T11:59:46.826Z,25.47
2023-06-04T12:02:14.298Z,25.58
2023-06-04T12:04:41.723Z,25.13
2023-06-04T12:07:10.642Z,24.59
2023-06-04T12:09:41.067Z,24.56
2023-06-04T12:12:09.053Z,24.93
2023-06-04T12:14:36.691Z,25.25
2023-06-04T12:17:08.529Z,25.33
2023-06-04T12:19:49.633Z,25.40
2023-06-04T12:22:17.559Z,25.52
2023-06-04T12:25:03.772Z,25.47
2023-06-04T12:27:32.233Z,25.51
2023-06-04T12:30:01.050Z,25.62
2023-06-04T12:32:29.058Z,25.79
2023-06-04T12:34:56.523Z,25.94
2023-06-04T12:37:26.068Z,25.71
2023-06-04T12:39:54.233Z,25.70
2023-06-04T12:42:21.924Z,25.70
2023-06-04T12:44:49.066Z,25.71
2023-06-04T12:47:17.671Z,25.69
2023-06-04T12:49:56.241Z,25.76
2023-06-04T12:52:27.080Z,25.81
2023-06-04T12:54:54.676Z,26.05
2023-06-04T12:57:21.878Z,26.25
2023-06-04T12:59:49.145Z,26.07
2023-06-04T13:02:16.587Z,25.93
2023-06-04T13:04:46.614Z,25.64
2023-06-04T13:07:14.338Z,25.45
2023-06-04T13:09:41.810Z,25.41
2023-06-04T13:12:10.122Z,25.25
2023-06-04T13:14:37.327Z,25.15
2023-06-04T13:17:20.913Z,25.18
2023-06-04T13:19:50.342Z,25.23
2023-06-04T13:22:17.662Z,25.18
2023-06-04T13:24:44.832Z,25.30
2023-06-04T13:27:12.028Z,25.45
2023-06-04T13:29:39.180Z,25.50
2023-06-04T13:32:06.291Z,25.56
2023-06-04T13:34:33.882Z,25.63
2023-06-04T13:37:01.278Z,25.56
2023-06-04T13:39:28.487Z,25.51
2023-06-04T13:41:56.122Z,25.45
2023-06-04T13:44:27.412Z,25.38
2023-06-04T13:46:55.315Z,25.48
2023-06-04T13:49:22.661Z,25.74
2023-06-04T13:51:52.088Z,26.00
2023-06-04T13:54:19.360Z,25.99
2023-06-04T13:56:46.740Z,25.93
2023-06-04T13:59:14.005Z,25.94
2023-06-04T14:01:41.279Z,25.91
2023-06-04T14:04:08.961Z,26.19
2023-06-04T14:06:36.625Z,26.32
2023-06-04T14:09:04.678Z,26.34
2023-06-04T14:11:33.369Z,26.41
2023-06-04T14:14:00.698Z,26.49
2023-06-04T14:16:28.309Z,26.56
2023-06-04T14:18:56.261Z,26.83
2023-06-04T14:21:23.363Z,26.99
2023-06-04T14:23:50.913Z,26.85
2023-06-04T14:26:18.785Z,26.63
2023-06-04T14:28:46.149Z,26.45
2023-06-04T14:31:13.575Z,26.29
2023-06-04T14:33:40.976Z,26.25
2023-06-04T14:36:08.306Z,26.08
2023-06-04T14:38:35.729Z,26.02
2023-06-04T14:41:02.939Z,26.00
2023-06-04T14:43:30.406Z,25.85
2023-06-04T14:45:57.775Z,25.82
2023-06-04T14:48:25.461Z,25.73
2023-06-04T14:50:54.223Z,25.80
2023-06-04T14:53:21.507Z,25.98
2023-06-04T14:55:48.861Z,26.20
2023-06-04T14:58:16.779Z,26.25
2023-06-04T15:00:43.991Z,26.26
2023-06-04T15:03:11.571Z,26.21
2023-06-04T15:05:39.090Z,26.13
2023-06-04T15:08:06.495Z,25.90
2023-06-04T15:10:34.763Z,25.58
2023-06-04T15:13:02.048Z,25.40
2023-06-04T15:15:29.470Z,25.25
2023-06-04T15:17:56.922Z,25.02
2023-06-04T15:20:25.884Z,24.90
2023-06-04T15:22:54.029Z,24.86
2023-06-04T15:25:21.378Z,24.62
2023-06-04T15:27:49.073Z,24.62
2023-06-04T15:30:17.801Z,24.65
2023-06-04T15:32:45.291Z,24.89
2023-06-04T15:35:12.933Z,25.16
2023-06-04T15:37:40.052Z,25.50
2023-06-04T15:40:10.350Z,25.75
2023-06-04T15:42:37.734Z,25.86
2023-06-04T15:45:06.033Z,26.12
2023-06-04T15:47:34.402Z,26.43
2023-06-04T15:50:01.748Z,26.66
2023-06-04T15:52:29.361Z,26.81
2023-06-04T15:54:56.542Z,27.34
2023-06-04T15:57:23.673Z,28.03
2023-06-04T15:59:50.923Z,28.67
2023-06-04T16:02:18.276Z,29.30
2023-06-04T16:04:45.492Z,29.75
2023-06-04T16:07:12.615Z,30.14
2023-06-04T16:09:39.951Z,30.54
2023-06-04T16:12:07.230Z,30.94
2023-06-04T16:14:34.902Z,31.24
2023-06-04T16:17:03.749Z,31.11
2023-06-04T16:19:31.117Z,31.14
2023-06-04T16:21:58.881Z,31.36
2023-06-04T16:24:26.248Z,31.61
2023-06-04T16:26:53.779Z,31.71
2023-06-04T16:29:20.843Z,31.81
2023-06-04T16:31:48.930Z,31.60
2023-06-04T16:34:16.071Z,30.96
2023-06-04T16:36:43.780Z,30.18
2023-06-04T16:39:13.040Z,29.27
2023-06-04T16:41:40.804Z,28.50
2023-06-04T16:44:08.161Z,27.90
2023-06-04T16:46:36.526Z,27.28
2023-06-04T16:49:04.260Z,26.77
2023-06-04T16:51:31.982Z,26.32
2023-06-04T16:53:59.533Z,25.92
2023-06-04T16:56:27.297Z,25.55
2023-06-04T16:58:54.964Z,25.21
2023-06-04T17:01:23.031Z,24.93
2023-06-04T17:03:52.754Z,24.71
2023-06-04T17:06:20.900Z,24.51
2023-06-04T17:08:48.482Z,24.26
2023-06-04T17:11:16.152Z,24.02
2023-06-04T17:13:43.691Z,23.90
2023-06-04T17:16:13.391Z,23.79
2023-06-04T17:18:40.805Z,23.61
2023-06-04T17:21:08.013Z,23.51
2023-06-04T17:23:38.757Z,23.36
2023-06-04T17:26:07.320Z,23.24
2023-06-04T17:28:35.141Z,23.14
2023-06-04T17:31:03.432Z,22.96
2023-06-04T17:33:32.317Z,22.92
2023-06-04T17:36:02.304Z,22.82
2023-06-04T17:38:29.670Z,22.70
2023-06-04T17:40:57.328Z,22.62
2023-06-04T17:43:25.152Z,22.55
2023-06-04T17:45:53.000Z,22.47
2023-06-04T17:48:22.050Z,22.40
2023-06-04T17:50:50.008Z,22.36
2023-06-04T17:53:17.336Z,22.25
2023-06-04T17:55:45.246Z,22.19
2023-06-04T17:58:12.836Z,22.12
2023-06-04T18:00:42.804Z,22.01
2023-06-04T18:03:12.279Z,21.94
2023-06-04T18:05:39.729Z,21.86
2023-06-04T18:08:10.699Z,21.78
2023-06-04T18:10:39.389Z,21.70
2023-06-04T18:13:08.104Z,21.65
2023-06-04T18:15:35.235Z,21.58
2023-06-04T18:18:03.157Z,21.57
2023-06-04T18:20:33.691Z,21.53
2023-06-04T18:23:01.656Z,21.49
2023-06-04T18:25:31.290Z,21.42
2023-06-04T18:27:59.167Z,21.36
2023-06-04T18:30:26.813Z,21.33
2023-06-04T18:32:54.876Z,21.29
2023-06-04T18:35:22.589Z,21.24
2023-06-04T18:37:50.146Z,21.22
2023-06-04T18:40:17.834Z,21.14
2023-06-04T18:42:46.344Z,21.15
2023-06-04T18:45:15.420Z,21.12
2023-06-04T18:47:43.583Z,21.05
2023-06-04T18:50:12.593Z,21.03
2023-06-04T18:52:40.219Z,20.99
2023-06-04T18:55:08.593Z,20.95
2023-06-04T18:57:37.422Z,20.90
2023-06-04T19:00:09.250Z,20.83
2023-06-04T19:02:37.762Z,20.79
2023-06-04T19:05:10.891Z,20.76
2023-06-04T19:07:40.360Z,20.78
2023-06-04T19:10:07.905Z,20.75
2023-06-04T19:12:35.051Z,20.70
2023-06-04T19:15:02.932Z,20.71
2023-06-04T19:17:31.438Z,20.64
2023-06-04T19:19:58.856Z,20.62
2023-06-04T19:22:26.825Z,20.62
2023-06-04T19:24:54.556Z,20.60
2023-06-04T19:27:22.652Z,20.56
2023-06-04T19:29:50.431Z,20.55
2023-06-04T19:32:18.147Z,20.52
2023-06-04T19:34:49.115Z,20.50
2023-06-04T19:37:18.137Z,20.44
2023-06-04T19:39:46.305Z,20.40
2023-06-04T19:42:13.859Z,20.30
2023-06-04T19:44:41.867Z,20.30
2023-06-04T19:47:09.997Z,20.29
2023-06-04T19:49:37.262Z,20.27
2023-06-04T19:52:05.759Z,20.25
2023-06-04T19:54:33.461Z,20.26
2023-06-04T19:57:01.952Z,20.26
2023-06-04T19:59:29.886Z,20.26
2023-06-04T20:01:58.481Z,20.25
2023-06-04T20:04:26.386Z,20.26
2023-06-04T20:06:56.189Z,20.32
2023-06-04T20:09:26.308Z,20.34
2023-06-04T20:11:55.753Z,20.34
2023-06-04T20:14:23.890Z,20.32
2023-06-04T20:16:52.219Z,20.33
2023-06-04T20:19:21.956Z,20.30
2023-06-04T20:21:49.840Z,20.30
2023-06-04T20:24:18.834Z,20.30
2023-06-04T20:26:48.574Z,20.29
2023-06-04T20:29:15.808Z,20.27
2023-06-04T20:31:46.546Z,20.26
2023-06-04T20:34:15.259Z,20.26
2023-06-04T20:36:42.932Z,20.25
2023-06-04T20:39:10.444Z,20.21
2023-06-04T20:41:39.185Z,20.17
2023-06-04T20:44:07.528Z,20.14
2023-06-04T20:46:34.953Z,20.09
2023-06-04T20:49:04.717Z,19.98
2023-06-04T20:51:34.697Z,20.01
2023-06-04T20:54:02.021Z,19.99
2023-06-04T20:56:29.154Z,19.97
2023-06-04T20:58:57.483Z,19.88
2023-06-04T21:01:24.762Z,19.91
2023-06-04T21:03:53.682Z,19.89
2023-06-04T21:06:20.972Z,19.80
2023-06-04T21:08:48.404Z,19.77
2023-06-04T21:11:15.760Z,19.72
2023-06-04T21:13:43.236Z,19.63
2023-06-04T21:16:10.921Z,19.64
2023-06-04T21:18:38.185Z,19.61
2023-06-04T21:21:05.488Z,19.52
2023-06-04T21:23:32.669Z,19.48
2023-06-04T21:25:59.928Z,19.47
2023-06-04T21:28:27.332Z,19.44
2023-06-04T21:30:54.408Z,19.45
2023-06-04T21:33:21.539Z,19.47
2023-06-04T21:35:48.636Z,19.42
2023-06-04T21:38:15.732Z,19.46
2023-06-04T21:40:43.121Z,19.46
2023-06-04T21:43:10.947Z,19.44
2023-06-04T21:45:38.880Z,19.38
2023-06-04T21:48:06.786Z,19.37
2023-06-04T21:50:33.942Z,19.32
2023-06-04T21:53:01.292Z,19.35
2023-06-04T21:55:28.458Z,19.34
2023-06-04T21:57:56.788Z,19.36
2023-06-04T22:00:24.666Z,19.40
2023-06-04T22:02:52.089Z,19.40
2023-06-04T22:05:19.548Z,19.45
2023-06-04T22:07:48.828Z,19.46
2023-06-04T22:10:16.306Z,19.49
2023-06-04T22:12:44.910Z,19.51
2023-06-04T22:15:12.108Z,19.49
2023-06-04T22:17:39.506Z,19.48
2023-06-04T22:20:07.797Z,19.46
2023-06-04T22:22:35.343Z,19.43
2023-06-04T22:25:02.681Z,19.39
2023-06-04T22:27:29.823Z,19.32
2023-06-04T22:29:57.177Z,19.30
2023-06-04T22:32:24.412Z,19.30
2023-06-04T22:34:51.572Z,19.28
2023-06-04T22:37:18.887Z,19.25
2023-06-04T22:39:46.272Z,19.18
2023-06-04T22:42:13.369Z,19.13
2023-06-04T22:44:40.487Z,19.16
2023-06-04T22:47:09.520Z,19.15
2023-06-04T22:49:38.384Z,19.16
2023-06-04T22:52:06.327Z,19.18
2023-06-04T22:54:33.497Z,19.18
2023-06-04T22:57:00.897Z,19.17
2023-06-04T22:59:27.992Z,19.18
2023-06-04T23:01:55.041Z,19.20
2023-06-04T23:04:22.608Z,19.21
2023-06-04T23:06:49.704Z,19.21
2023-06-04T23:09:16.860Z,19.15
2023-06-04T23:11:44.334Z,19.13
2023-06-04T23:14:11.478Z,19.09
2023-06-04T23:16:39.380Z,19.11
2023-06-04T23:19:06.873Z,19.06
2023-06-04T23:21:34.113Z,19.00
2023-06-04T23:24:01.280Z,19.00
2023-06-04T23:26:28.688Z,18.92
2023-06-04T23:28:55.810Z,18.93
2023-06-04T23:31:22.932Z,18.92
2023-06-04T23:33:50.258Z,18.90
2023-06-04T23:36:18.772Z,18.88
2023-06-04T23:38:47.806Z,18.86
2023-06-04T23:41:15.294Z,18.84
2023-06-04T23:43:43.153Z,18.78
2023-06-04T23:46:10.624Z,18.76
2023-06-04T23:48:38.222Z,18.77
2023-06-04T23:51:05.642Z,18.75
2023-06-04T23:53:33.232Z,18.71
2023-06-04T23:56:00.696Z,18.65
2023-06-04T23:58:28.523Z,18.59
